sensor_id;sensor_type;location;lat;lon;timestamp;temperature;humidity
52941;DHT22;62001;53.366;6.636;2022-07-22T00:01:41;16.10;99.90
52941;DHT22;62001;53.366;6.636;2022-07-22T00:04:07;16.20;99.90
52941;DHT22;62001;53.366;6.636;2022-07-22T00:06:33;16.20;99.90
52941;DHT22;62001;53.366;6.636;2022-07-22T00:08:59;16.20;99.90
52941;DHT22;62001;53.366;6.636;2022-07-22T00:11:24;16.20;99.90
52941;DHT22;62001;53.366;6.636;2022-07-22T00:13:50;16.10;99.90
52941;DHT22;62001;53.366;6.636;2022-07-22T00:16:16;16.10;99.90
52941;DHT22;62001;53.366;6.636;2022-07-22T00:18:42;16.20;99.90
52941;DHT22;62001;53.366;6.636;2022-07-22T00:21:08;16.10;99.90
52941;DHT22;62001;53.366;6.636;2022-07-22T00:23:34;16.20;99.90
52941;DHT22;62001;53.366;6.636;2022-07-22T00:26:00;16.20;99.90
52941;DHT22;62001;53.366;6.636;2022-07-22T00:28:25;16.20;99.90
52941;DHT22;62001;53.366;6.636;2022-07-22T00:30:51;16.10;99.90
52941;DHT22;62001;53.366;6.636;2022-07-22T00:33:17;16.20;99.90
52941;DHT22;62001;53.366;6.636;2022-07-22T00:35:43;16.10;99.90
52941;DHT22;62001;53.366;6.636;2022-07-22T00:38:09;16.10;99.90
52941;DHT22;62001;53.366;6.636;2022-07-22T00:40:35;16.10;99.90
52941;DHT22;62001;53.366;6.636;2022-07-22T00:43:01;16.10;99.90
52941;DHT22;62001;53.366;6.636;2022-07-22T00:45:27;16.10;99.90
52941;DHT22;62001;53.366;6.636;2022-07-22T00:47:53;16.10;99.90
52941;DHT22;62001;53.366;6.636;2022-07-22T00:50:19;16.10;99.90
52941;DHT22;62001;53.366;6.636;2022-07-22T00:52:47;16.10;99.90
52941;DHT22;62001;53.366;6.636;2022-07-22T00:55:13;16.00;99.90
52941;DHT22;62001;53.366;6.636;2022-07-22T00:57:39;16.00;99.90
52941;DHT22;62001;53.366;6.636;2022-07-22T01:00:08;16.00;99.90
52941;DHT22;62001;53.366;6.636;2022-07-22T01:02:34;16.00;99.90
52941;DHT22;62001;53.366;6.636;2022-07-22T01:05:00;16.00;99.90
52941;DHT22;62001;53.366;6.636;2022-07-22T01:07:26;16.00;99.90
52941;DHT22;62001;53.366;6.636;2022-07-22T01:09:52;16.00;99.90
52941;DHT22;62001;53.366;6.636;2022-07-22T01:12:17;16.00;99.90
52941;DHT22;62001;53.366;6.636;2022-07-22T01:14:44;16.00;99.90
52941;DHT22;62001;53.366;6.636;2022-07-22T01:17:09;16.00;99.90
52941;DHT22;62001;53.366;6.636;2022-07-22T01:19:36;16.00;99.90
52941;DHT22;62001;53.366;6.636;2022-07-22T01:22:03;16.00;99.90
52941;DHT22;62001;53.366;6.636;2022-07-22T01:24:29;16.00;99.90
52941;DHT22;62001;53.366;6.636;2022-07-22T01:26:55;16.00;99.90
52941;DHT22;62001;53.366;6.636;2022-07-22T01:29:20;16.00;99.90
52941;DHT22;62001;53.366;6.636;2022-07-22T01:31:46;16.00;99.90
52941;DHT22;62001;53.366;6.636;2022-07-22T01:34:12;16.00;99.90
52941;DHT22;62001;53.366;6.636;2022-07-22T01:36:38;16.00;99.90
52941;DHT22;62001;53.366;6.636;2022-07-22T01:39:04;16.00;99.90
52941;DHT22;62001;53.366;6.636;2022-07-22T01:41:30;16.00;99.90
52941;DHT22;62001;53.366;6.636;2022-07-22T01:43:56;16.00;99.90
52941;DHT22;62001;53.366;6.636;2022-07-22T01:46:22;16.00;99.90
52941;DHT22;62001;53.366;6.636;2022-07-22T01:48:50;16.00;99.90
52941;DHT22;62001;53.366;6.636;2022-07-22T01:51:16;16.00;99.90
52941;DHT22;62001;53.366;6.636;2022-07-22T01:53:42;16.00;99.90
52941;DHT22;62001;53.366;6.636;2022-07-22T01:56:08;16.00;99.90
52941;DHT22;62001;53.366;6.636;2022-07-22T01:58:34;16.00;99.90
52941;DHT22;62001;53.366;6.636;2022-07-22T02:01:00;16.00;99.90
52941;DHT22;62001;53.366;6.636;2022-07-22T02:03:25;16.00;99.90
52941;DHT22;62001;53.366;6.636;2022-07-22T02:05:51;16.00;99.90
52941;DHT22;62001;53.366;6.636;2022-07-22T02:08:17;15.90;99.90
52941;DHT22;62001;53.366;6.636;2022-07-22T02:10:44;15.90;99.90
52941;DHT22;62001;53.366;6.636;2022-07-22T02:13:10;15.90;99.90
52941;DHT22;62001;53.366;6.636;2022-07-22T02:15:35;15.90;99.90
52941;DHT22;62001;53.366;6.636;2022-07-22T02:18:11;15.90;99.90
52941;DHT22;62001;53.366;6.636;2022-07-22T02:20:37;15.90;99.90
52941;DHT22;62001;53.366;6.636;2022-07-22T02:23:02;15.90;99.90
52941;DHT22;62001;53.366;6.636;2022-07-22T02:25:28;15.90;99.90
52941;DHT22;62001;53.366;6.636;2022-07-22T02:27:54;15.90;99.90
52941;DHT22;62001;53.366;6.636;2022-07-22T02:30:20;15.90;99.90
52941;DHT22;62001;53.366;6.636;2022-07-22T02:32:46;15.90;99.90
52941;DHT22;62001;53.366;6.636;2022-07-22T02:35:11;15.90;99.90
52941;DHT22;62001;53.366;6.636;2022-07-22T02:37:37;15.80;99.90
52941;DHT22;62001;53.366;6.636;2022-07-22T02:40:05;15.80;99.90
52941;DHT22;62001;53.366;6.636;2022-07-22T02:42:31;15.80;99.90
52941;DHT22;62001;53.366;6.636;2022-07-22T02:44:57;15.80;99.90
52941;DHT22;62001;53.366;6.636;2022-07-22T02:47:23;15.80;99.90
52941;DHT22;62001;53.366;6.636;2022-07-22T02:49:49;15.80;99.90
52941;DHT22;62001;53.366;6.636;2022-07-22T02:52:15;15.80;99.90
52941;DHT22;62001;53.366;6.636;2022-07-22T02:54:41;15.80;99.90
52941;DHT22;62001;53.366;6.636;2022-07-22T02:57:06;15.80;99.90
52941;DHT22;62001;53.366;6.636;2022-07-22T02:59:32;15.80;99.90
52941;DHT22;62001;53.366;6.636;2022-07-22T03:01:58;15.70;99.90
52941;DHT22;62001;53.366;6.636;2022-07-22T03:04:24;15.80;99.90
52941;DHT22;62001;53.366;6.636;2022-07-22T03:06:49;15.80;99.90
52941;DHT22;62001;53.366;6.636;2022-07-22T03:09:15;15.80;99.90
52941;DHT22;62001;53.366;6.636;2022-07-22T03:11:41;15.80;99.90
52941;DHT22;62001;53.366;6.636;2022-07-22T03:14:07;15.80;99.90
52941;DHT22;62001;53.366;6.636;2022-07-22T03:16:33;15.80;99.90
52941;DHT22;62001;53.366;6.636;2022-07-22T03:18:58;15.70;99.90
52941;DHT22;62001;53.366;6.636;2022-07-22T03:21:24;15.70;99.90
52941;DHT22;62001;53.366;6.636;2022-07-22T03:23:50;15.70;99.90
52941;DHT22;62001;53.366;6.636;2022-07-22T03:26:20;15.70;99.90
52941;DHT22;62001;53.366;6.636;2022-07-22T03:28:46;15.70;99.90
52941;DHT22;62001;53.366;6.636;2022-07-22T03:31:13;15.70;99.90
52941;DHT22;62001;53.366;6.636;2022-07-22T03:33:39;15.70;99.90
52941;DHT22;62001;53.366;6.636;2022-07-22T03:36:05;15.70;99.90
52941;DHT22;62001;53.366;6.636;2022-07-22T03:38:33;15.70;99.90
52941;DHT22;62001;53.366;6.636;2022-07-22T03:40:58;15.80;99.90
52941;DHT22;62001;53.366;6.636;2022-07-22T03:43:24;15.80;99.90
52941;DHT22;62001;53.366;6.636;2022-07-22T03:45:50;15.80;99.90
52941;DHT22;62001;53.366;6.636;2022-07-22T03:48:16;15.80;99.90
52941;DHT22;62001;53.366;6.636;2022-07-22T03:50:41;15.80;99.90
52941;DHT22;62001;53.366;6.636;2022-07-22T03:53:07;15.70;99.90
52941;DHT22;62001;53.366;6.636;2022-07-22T03:55:33;15.70;99.90
52941;DHT22;62001;53.366;6.636;2022-07-22T03:57:59;15.70;99.90
52941;DHT22;62001;53.366;6.636;2022-07-22T04:00:24;15.70;99.90
52941;DHT22;62001;53.366;6.636;2022-07-22T04:02:50;15.70;99.90
52941;DHT22;62001;53.366;6.636;2022-07-22T04:05:16;15.70;99.90
52941;DHT22;62001;53.366;6.636;2022-07-22T04:07:42;15.70;99.90
52941;DHT22;62001;53.366;6.636;2022-07-22T04:10:08;15.60;99.90
52941;DHT22;62001;53.366;6.636;2022-07-22T04:12:36;15.70;99.90
52941;DHT22;62001;53.366;6.636;2022-07-22T04:15:03;15.70;99.90
52941;DHT22;62001;53.366;6.636;2022-07-22T04:17:29;15.70;99.90
52941;DHT22;62001;53.366;6.636;2022-07-22T04:19:56;15.60;99.90
52941;DHT22;62001;53.366;6.636;2022-07-22T04:22:22;15.70;99.90
52941;DHT22;62001;53.366;6.636;2022-07-22T04:24:48;15.70;99.90
52941;DHT22;62001;53.366;6.636;2022-07-22T04:27:14;15.70;99.90
52941;DHT22;62001;53.366;6.636;2022-07-22T04:29:40;15.70;99.90
52941;DHT22;62001;53.366;6.636;2022-07-22T04:32:06;15.70;99.90
52941;DHT22;62001;53.366;6.636;2022-07-22T04:34:31;15.70;99.90
52941;DHT22;62001;53.366;6.636;2022-07-22T04:36:57;15.70;99.90
52941;DHT22;62001;53.366;6.636;2022-07-22T04:39:23;15.70;99.90
52941;DHT22;62001;53.366;6.636;2022-07-22T04:41:49;15.70;99.90
52941;DHT22;62001;53.366;6.636;2022-07-22T04:44:15;15.70;99.90
52941;DHT22;62001;53.366;6.636;2022-07-22T04:46:40;15.70;99.90
52941;DHT22;62001;53.366;6.636;2022-07-22T04:49:06;15.70;99.90
52941;DHT22;62001;53.366;6.636;2022-07-22T04:51:32;15.70;99.90
52941;DHT22;62001;53.366;6.636;2022-07-22T04:53:58;15.70;99.90
52941;DHT22;62001;53.366;6.636;2022-07-22T04:56:23;15.70;99.90
52941;DHT22;62001;53.366;6.636;2022-07-22T04:58:49;15.80;99.90
52941;DHT22;62001;53.366;6.636;2022-07-22T05:01:16;15.80;99.90
52941;DHT22;62001;53.366;6.636;2022-07-22T05:03:43;15.70;99.90
52941;DHT22;62001;53.366;6.636;2022-07-22T05:06:09;15.80;99.90
52941;DHT22;62001;53.366;6.636;2022-07-22T05:08:34;15.70;99.90
52941;DHT22;62001;53.366;6.636;2022-07-22T05:11:01;15.70;99.90
52941;DHT22;62001;53.366;6.636;2022-07-22T05:13:27;15.80;99.90
52941;DHT22;62001;53.366;6.636;2022-07-22T05:15:53;15.70;99.90
52941;DHT22;62001;53.366;6.636;2022-07-22T05:18:18;15.70;99.90
52941;DHT22;62001;53.366;6.636;2022-07-22T05:20:44;15.80;99.90
52941;DHT22;62001;53.366;6.636;2022-07-22T05:23:10;15.80;99.90
52941;DHT22;62001;53.366;6.636;2022-07-22T05:25:36;15.80;99.90
52941;DHT22;62001;53.366;6.636;2022-07-22T05:28:02;15.80;99.90
52941;DHT22;62001;53.366;6.636;2022-07-22T05:30:28;15.90;99.90
52941;DHT22;62001;53.366;6.636;2022-07-22T05:32:54;15.90;99.90
52941;DHT22;62001;53.366;6.636;2022-07-22T05:35:20;15.90;99.90
52941;DHT22;62001;53.366;6.636;2022-07-22T05:37:47;15.90;99.90
52941;DHT22;62001;53.366;6.636;2022-07-22T05:40:13;16.00;99.90
52941;DHT22;62001;53.366;6.636;2022-07-22T05:42:39;16.00;99.90
52941;DHT22;62001;53.366;6.636;2022-07-22T05:45:05;16.00;99.90
52941;DHT22;62001;53.366;6.636;2022-07-22T05:47:31;16.00;99.90
52941;DHT22;62001;53.366;6.636;2022-07-22T05:49:57;16.00;99.90
52941;DHT22;62001;53.366;6.636;2022-07-22T05:52:22;16.00;99.90
52941;DHT22;62001;53.366;6.636;2022-07-22T05:54:48;16.00;99.90
52941;DHT22;62001;53.366;6.636;2022-07-22T05:57:15;16.00;99.90
52941;DHT22;62001;53.366;6.636;2022-07-22T05:59:40;16.10;99.90
52941;DHT22;62001;53.366;6.636;2022-07-22T06:02:07;16.10;99.90
52941;DHT22;62001;53.366;6.636;2022-07-22T06:04:33;16.10;99.90
52941;DHT22;62001;53.366;6.636;2022-07-22T06:06:59;16.20;99.90
52941;DHT22;62001;53.366;6.636;2022-07-22T06:09:25;16.20;99.90
52941;DHT22;62001;53.366;6.636;2022-07-22T06:11:50;16.20;99.90
52941;DHT22;62001;53.366;6.636;2022-07-22T06:14:16;16.20;99.90
52941;DHT22;62001;53.366;6.636;2022-07-22T06:16:42;16.20;99.90
52941;DHT22;62001;53.366;6.636;2022-07-22T06:19:08;16.30;99.90
52941;DHT22;62001;53.366;6.636;2022-07-22T06:21:34;16.30;99.90
52941;DHT22;62001;53.366;6.636;2022-07-22T06:24:00;16.40;99.90
52941;DHT22;62001;53.366;6.636;2022-07-22T06:26:25;16.40;99.90
52941;DHT22;62001;53.366;6.636;2022-07-22T06:28:51;16.40;99.90
52941;DHT22;62001;53.366;6.636;2022-07-22T06:31:17;16.50;99.90
52941;DHT22;62001;53.366;6.636;2022-07-22T06:33:43;16.60;99.90
52941;DHT22;62001;53.366;6.636;2022-07-22T06:36:09;16.60;99.90
52941;DHT22;62001;53.366;6.636;2022-07-22T06:38:34;16.70;99.90
52941;DHT22;62001;53.366;6.636;2022-07-22T06:41:00;16.70;99.90
52941;DHT22;62001;53.366;6.636;2022-07-22T06:43:27;16.70;99.90
52941;DHT22;62001;53.366;6.636;2022-07-22T06:45:54;16.70;99.90
52941;DHT22;62001;53.366;6.636;2022-07-22T06:48:20;16.70;99.90
52941;DHT22;62001;53.366;6.636;2022-07-22T06:50:46;16.80;99.90
52941;DHT22;62001;53.366;6.636;2022-07-22T06:53:11;16.80;99.90
52941;DHT22;62001;53.366;6.636;2022-07-22T06:55:37;16.90;99.90
52941;DHT22;62001;53.366;6.636;2022-07-22T06:58:03;16.90;99.90
52941;DHT22;62001;53.366;6.636;2022-07-22T07:00:29;17.00;99.90
52941;DHT22;62001;53.366;6.636;2022-07-22T07:02:58;17.00;99.90
52941;DHT22;62001;53.366;6.636;2022-07-22T07:05:24;17.10;99.90
52941;DHT22;62001;53.366;6.636;2022-07-22T07:07:50;17.10;99.90
52941;DHT22;62001;53.366;6.636;2022-07-22T07:10:16;17.20;99.90
52941;DHT22;62001;53.366;6.636;2022-07-22T07:12:42;17.30;99.90
52941;DHT22;62001;53.366;6.636;2022-07-22T07:15:08;17.30;99.90
52941;DHT22;62001;53.366;6.636;2022-07-22T07:17:34;17.30;99.90
52941;DHT22;62001;53.366;6.636;2022-07-22T07:20:00;17.40;99.90
52941;DHT22;62001;53.366;6.636;2022-07-22T07:22:26;17.40;99.90
52941;DHT22;62001;53.366;6.636;2022-07-22T07:24:51;17.40;99.90
52941;DHT22;62001;53.366;6.636;2022-07-22T07:27:17;17.50;99.90
52941;DHT22;62001;53.366;6.636;2022-07-22T07:29:43;17.40;99.90
52941;DHT22;62001;53.366;6.636;2022-07-22T07:32:09;17.40;99.90
52941;DHT22;62001;53.366;6.636;2022-07-22T07:34:34;17.30;99.90
52941;DHT22;62001;53.366;6.636;2022-07-22T07:37:00;17.30;99.90
52941;DHT22;62001;53.366;6.636;2022-07-22T07:39:26;17.30;99.90
52941;DHT22;62001;53.366;6.636;2022-07-22T07:41:52;17.40;99.90
52941;DHT22;62001;53.366;6.636;2022-07-22T07:44:18;17.50;99.90
52941;DHT22;62001;53.366;6.636;2022-07-22T07:46:44;17.60;99.90
52941;DHT22;62001;53.366;6.636;2022-07-22T07:49:10;17.70;99.90
52941;DHT22;62001;53.366;6.636;2022-07-22T07:51:35;17.70;99.90
52941;DHT22;62001;53.366;6.636;2022-07-22T07:54:01;17.70;99.90
52941;DHT22;62001;53.366;6.636;2022-07-22T07:56:27;17.80;99.90
52941;DHT22;62001;53.366;6.636;2022-07-22T07:58:53;17.80;99.90
52941;DHT22;62001;53.366;6.636;2022-07-22T08:01:19;17.80;99.90
52941;DHT22;62001;53.366;6.636;2022-07-22T08:03:45;17.80;99.90
52941;DHT22;62001;53.366;6.636;2022-07-22T08:06:11;17.70;99.90
52941;DHT22;62001;53.366;6.636;2022-07-22T08:08:36;17.70;99.90
52941;DHT22;62001;53.366;6.636;2022-07-22T08:11:02;17.70;99.90
52941;DHT22;62001;53.366;6.636;2022-07-22T08:13:28;17.60;99.90
52941;DHT22;62001;53.366;6.636;2022-07-22T08:15:54;17.70;99.90
52941;DHT22;62001;53.366;6.636;2022-07-22T08:18:21;17.70;99.90
52941;DHT22;62001;53.366;6.636;2022-07-22T08:20:47;17.70;99.90
52941;DHT22;62001;53.366;6.636;2022-07-22T08:23:13;17.70;99.90
52941;DHT22;62001;53.366;6.636;2022-07-22T08:25:39;17.70;99.90
52941;DHT22;62001;53.366;6.636;2022-07-22T08:28:08;17.80;99.90
52941;DHT22;62001;53.366;6.636;2022-07-22T08:30:34;17.80;99.90
52941;DHT22;62001;53.366;6.636;2022-07-22T08:33:00;17.70;99.90
52941;DHT22;62001;53.366;6.636;2022-07-22T08:35:26;17.70;99.90
52941;DHT22;62001;53.366;6.636;2022-07-22T08:37:52;17.70;99.90
52941;DHT22;62001;53.366;6.636;2022-07-22T08:40:19;17.70;99.90
52941;DHT22;62001;53.366;6.636;2022-07-22T08:42:46;17.80;99.90
52941;DHT22;62001;53.366;6.636;2022-07-22T08:45:13;17.80;99.90
52941;DHT22;62001;53.366;6.636;2022-07-22T08:47:39;17.90;99.90
52941;DHT22;62001;53.366;6.636;2022-07-22T08:50:05;17.90;99.90
52941;DHT22;62001;53.366;6.636;2022-07-22T08:52:31;17.90;99.90
52941;DHT22;62001;53.366;6.636;2022-07-22T08:54:57;18.00;99.90
52941;DHT22;62001;53.366;6.636;2022-07-22T08:57:23;18.10;99.90
52941;DHT22;62001;53.366;6.636;2022-07-22T08:59:54;18.10;99.90
52941;DHT22;62001;53.366;6.636;2022-07-22T09:02:21;18.20;99.90
52941;DHT22;62001;53.366;6.636;2022-07-22T09:04:59;18.20;99.90
52941;DHT22;62001;53.366;6.636;2022-07-22T09:07:34;18.30;99.90
52941;DHT22;62001;53.366;6.636;2022-07-22T09:10:04;18.30;99.90
52941;DHT22;62001;53.366;6.636;2022-07-22T09:12:31;18.40;99.90
52941;DHT22;62001;53.366;6.636;2022-07-22T09:14:59;18.40;99.90
52941;DHT22;62001;53.366;6.636;2022-07-22T09:17:28;18.40;99.90
52941;DHT22;62001;53.366;6.636;2022-07-22T09:19:56;18.60;99.90
52941;DHT22;62001;53.366;6.636;2022-07-22T09:22:33;18.60;99.90
52941;DHT22;62001;53.366;6.636;2022-07-22T09:25:23;18.70;99.90
52941;DHT22;62001;53.366;6.636;2022-07-22T09:27:52;18.70;99.90
52941;DHT22;62001;53.366;6.636;2022-07-22T09:30:22;18.70;99.90
52941;DHT22;62001;53.366;6.636;2022-07-22T09:32:49;18.70;99.90
52941;DHT22;62001;53.366;6.636;2022-07-22T09:35:15;18.70;99.90
52941;DHT22;62001;53.366;6.636;2022-07-22T09:37:53;18.70;99.90
52941;DHT22;62001;53.366;6.636;2022-07-22T09:40:30;18.70;99.90
52941;DHT22;62001;53.366;6.636;2022-07-22T09:43:00;18.50;99.90
52941;DHT22;62001;53.366;6.636;2022-07-22T09:45:28;18.50;99.90
52941;DHT22;62001;53.366;6.636;2022-07-22T09:47:56;18.40;99.90
52941;DHT22;62001;53.366;6.636;2022-07-22T09:52:51;18.00;99.90
52941;DHT22;62001;53.366;6.636;2022-07-22T09:55:20;17.90;99.90
52941;DHT22;62001;53.366;6.636;2022-07-22T09:57:46;17.80;99.90
52941;DHT22;62001;53.366;6.636;2022-07-22T10:00:14;17.70;99.90
52941;DHT22;62001;53.366;6.636;2022-07-22T10:02:47;17.60;99.90
52941;DHT22;62001;53.366;6.636;2022-07-22T10:05:15;17.60;99.90
52941;DHT22;62001;53.366;6.636;2022-07-22T10:07:43;17.60;99.90
52941;DHT22;62001;53.366;6.636;2022-07-22T10:10:11;17.60;99.90
52941;DHT22;62001;53.366;6.636;2022-07-22T10:12:37;17.60;99.90
52941;DHT22;62001;53.366;6.636;2022-07-22T10:15:05;17.70;99.90
52941;DHT22;62001;53.366;6.636;2022-07-22T10:17:31;17.80;99.90
52941;DHT22;62001;53.366;6.636;2022-07-22T10:19:58;17.70;99.90
52941;DHT22;62001;53.366;6.636;2022-07-22T10:25:06;17.70;99.90
52941;DHT22;62001;53.366;6.636;2022-07-22T10:30:35;18.00;99.90
52941;DHT22;62001;53.366;6.636;2022-07-22T10:33:08;18.10;99.90
52941;DHT22;62001;53.366;6.636;2022-07-22T10:35:37;18.20;99.90
52941;DHT22;62001;53.366;6.636;2022-07-22T10:38:05;18.20;99.90
52941;DHT22;62001;53.366;6.636;2022-07-22T10:40:54;18.20;99.90
52941;DHT22;62001;53.366;6.636;2022-07-22T10:43:24;18.20;99.90
52941;DHT22;62001;53.366;6.636;2022-07-22T10:45:58;18.30;99.90
52941;DHT22;62001;53.366;6.636;2022-07-22T10:51:08;18.70;99.90
52941;DHT22;62001;53.366;6.636;2022-07-22T10:58:46;19.20;99.90
52941;DHT22;62001;53.366;6.636;2022-07-22T11:01:15;19.10;99.90
52941;DHT22;62001;53.366;6.636;2022-07-22T11:03:43;18.90;99.90
52941;DHT22;62001;53.366;6.636;2022-07-22T11:06:28;18.70;99.90
52941;DHT22;62001;53.366;6.636;2022-07-22T11:16:45;18.50;99.90
52941;DHT22;62001;53.366;6.636;2022-07-22T11:19:11;18.40;99.90
52941;DHT22;62001;53.366;6.636;2022-07-22T11:21:37;18.30;99.90
52941;DHT22;62001;53.366;6.636;2022-07-22T11:24:05;18.20;99.90
52941;DHT22;62001;53.366;6.636;2022-07-22T11:26:43;18.20;99.90
52941;DHT22;62001;53.366;6.636;2022-07-22T11:29:16;18.10;99.90
52941;DHT22;62001;53.366;6.636;2022-07-22T11:31:42;18.00;99.90
52941;DHT22;62001;53.366;6.636;2022-07-22T11:34:15;18.00;99.90
52941;DHT22;62001;53.366;6.636;2022-07-22T11:36:43;18.10;99.90
52941;DHT22;62001;53.366;6.636;2022-07-22T11:39:11;18.00;99.90
52941;DHT22;62001;53.366;6.636;2022-07-22T11:41:38;18.00;99.90
52941;DHT22;62001;53.366;6.636;2022-07-22T11:44:04;18.00;99.90
52941;DHT22;62001;53.366;6.636;2022-07-22T11:46:41;18.20;99.90
52941;DHT22;62001;53.366;6.636;2022-07-22T11:49:09;18.30;99.90
52941;DHT22;62001;53.366;6.636;2022-07-22T11:51:37;18.40;99.90
52941;DHT22;62001;53.366;6.636;2022-07-22T11:54:04;18.60;99.90
52941;DHT22;62001;53.366;6.636;2022-07-22T11:56:32;18.80;99.90
52941;DHT22;62001;53.366;6.636;2022-07-22T11:58:59;18.90;99.90
52941;DHT22;62001;53.366;6.636;2022-07-22T12:01:28;19.00;99.90
52941;DHT22;62001;53.366;6.636;2022-07-22T12:03:58;19.10;99.90
52941;DHT22;62001;53.366;6.636;2022-07-22T12:06:26;19.10;99.90
52941;DHT22;62001;53.366;6.636;2022-07-22T12:08:56;19.00;99.90
52941;DHT22;62001;53.366;6.636;2022-07-22T12:11:24;18.90;99.90
52941;DHT22;62001;53.366;6.636;2022-07-22T12:13:51;19.00;99.90
52941;DHT22;62001;53.366;6.636;2022-07-22T12:16:24;18.90;99.90
52941;DHT22;62001;53.366;6.636;2022-07-22T12:18:58;18.90;99.90
52941;DHT22;62001;53.366;6.636;2022-07-22T12:21:26;18.90;99.90
52941;DHT22;62001;53.366;6.636;2022-07-22T12:23:54;18.90;99.90
52941;DHT22;62001;53.366;6.636;2022-07-22T12:26:46;18.90;99.90
52941;DHT22;62001;53.366;6.636;2022-07-22T12:31:59;18.90;99.90
52941;DHT22;62001;53.366;6.636;2022-07-22T12:34:33;18.80;99.90
52941;DHT22;62001;53.366;6.636;2022-07-22T12:37:07;18.80;99.90
52941;DHT22;62001;53.366;6.636;2022-07-22T12:39:36;18.80;99.90
52941;DHT22;62001;53.366;6.636;2022-07-22T12:42:16;18.80;99.90
52941;DHT22;62001;53.366;6.636;2022-07-22T12:44:51;18.90;99.90
52941;DHT22;62001;53.366;6.636;2022-07-22T12:47:41;18.80;99.90
52941;DHT22;62001;53.366;6.636;2022-07-22T12:53:01;18.90;99.90
52941;DHT22;62001;53.366;6.636;2022-07-22T12:55:32;19.00;99.90
52941;DHT22;62001;53.366;6.636;2022-07-22T12:57:59;19.00;99.90
52941;DHT22;62001;53.366;6.636;2022-07-22T13:00:35;19.10;99.90
52941;DHT22;62001;53.366;6.636;2022-07-22T13:03:01;19.20;99.90
52941;DHT22;62001;53.366;6.636;2022-07-22T13:05:27;19.20;99.90
52941;DHT22;62001;53.366;6.636;2022-07-22T13:07:53;19.20;99.90
52941;DHT22;62001;53.366;6.636;2022-07-22T13:10:21;19.20;99.90
52941;DHT22;62001;53.366;6.636;2022-07-22T13:12:47;19.20;99.90
52941;DHT22;62001;53.366;6.636;2022-07-22T13:15:14;19.30;99.90
52941;DHT22;62001;53.366;6.636;2022-07-22T13:17:41;19.30;99.90
52941;DHT22;62001;53.366;6.636;2022-07-22T13:20:07;19.40;99.90
52941;DHT22;62001;53.366;6.636;2022-07-22T13:22:34;19.50;99.90
52941;DHT22;62001;53.366;6.636;2022-07-22T13:25:00;19.50;99.90
52941;DHT22;62001;53.366;6.636;2022-07-22T13:27:26;19.50;99.90
52941;DHT22;62001;53.366;6.636;2022-07-22T13:29:52;19.50;99.90
52941;DHT22;62001;53.366;6.636;2022-07-22T13:32:18;19.50;99.90
52941;DHT22;62001;53.366;6.636;2022-07-22T13:34:44;19.50;99.90
52941;DHT22;62001;53.366;6.636;2022-07-22T13:37:09;19.30;99.90
52941;DHT22;62001;53.366;6.636;2022-07-22T13:39:36;19.30;99.90
52941;DHT22;62001;53.366;6.636;2022-07-22T13:42:02;19.30;99.90
52941;DHT22;62001;53.366;6.636;2022-07-22T13:44:28;19.30;99.90
52941;DHT22;62001;53.366;6.636;2022-07-22T13:46:59;19.30;99.90
52941;DHT22;62001;53.366;6.636;2022-07-22T13:49:25;19.10;99.90
52941;DHT22;62001;53.366;6.636;2022-07-22T13:51:51;19.00;99.90
52941;DHT22;62001;53.366;6.636;2022-07-22T13:54:18;19.10;99.90
52941;DHT22;62001;53.366;6.636;2022-07-22T13:56:45;19.20;99.90
52941;DHT22;62001;53.366;6.636;2022-07-22T13:59:13;19.20;99.90
52941;DHT22;62001;53.366;6.636;2022-07-22T14:01:39;19.30;99.90
52941;DHT22;62001;53.366;6.636;2022-07-22T14:04:05;19.20;99.90
52941;DHT22;62001;53.366;6.636;2022-07-22T14:06:32;19.30;99.90
52941;DHT22;62001;53.366;6.636;2022-07-22T14:08:58;19.30;99.90
52941;DHT22;62001;53.366;6.636;2022-07-22T14:11:24;19.30;99.90
52941;DHT22;62001;53.366;6.636;2022-07-22T14:13:50;19.30;99.90
52941;DHT22;62001;53.366;6.636;2022-07-22T14:16:16;19.40;99.90
52941;DHT22;62001;53.366;6.636;2022-07-22T14:19:08;19.30;99.90
52941;DHT22;62001;53.366;6.636;2022-07-22T14:21:36;19.50;99.90
52941;DHT22;62001;53.366;6.636;2022-07-22T14:24:04;19.60;99.90
52941;DHT22;62001;53.366;6.636;2022-07-22T14:26:30;19.70;99.90
52941;DHT22;62001;53.366;6.636;2022-07-22T14:28:56;19.60;99.90
52941;DHT22;62001;53.366;6.636;2022-07-22T14:31:22;19.50;99.90
52941;DHT22;62001;53.366;6.636;2022-07-22T14:33:48;19.50;99.90
52941;DHT22;62001;53.366;6.636;2022-07-22T14:36:15;19.60;99.90
52941;DHT22;62001;53.366;6.636;2022-07-22T14:38:41;19.60;99.90
52941;DHT22;62001;53.366;6.636;2022-07-22T14:41:07;19.60;99.90
52941;DHT22;62001;53.366;6.636;2022-07-22T14:43:34;19.50;99.90
52941;DHT22;62001;53.366;6.636;2022-07-22T14:46:01;19.40;99.90
52941;DHT22;62001;53.366;6.636;2022-07-22T14:48:28;19.30;99.90
52941;DHT22;62001;53.366;6.636;2022-07-22T14:50:53;19.20;99.90
52941;DHT22;62001;53.366;6.636;2022-07-22T14:53:19;19.00;99.90
52941;DHT22;62001;53.366;6.636;2022-07-22T14:55:46;18.90;99.90
52941;DHT22;62001;53.366;6.636;2022-07-22T14:58:12;18.70;99.90
52941;DHT22;62001;53.366;6.636;2022-07-22T15:00:38;18.70;99.90
52941;DHT22;62001;53.366;6.636;2022-07-22T15:03:04;18.70;99.90
52941;DHT22;62001;53.366;6.636;2022-07-22T15:05:29;18.70;99.90
52941;DHT22;62001;53.366;6.636;2022-07-22T15:07:55;18.80;99.90
52941;DHT22;62001;53.366;6.636;2022-07-22T15:10:21;18.90;99.90
52941;DHT22;62001;53.366;6.636;2022-07-22T15:12:47;18.90;99.90
52941;DHT22;62001;53.366;6.636;2022-07-22T15:15:13;18.90;99.90
52941;DHT22;62001;53.366;6.636;2022-07-22T15:17:39;18.90;99.90
52941;DHT22;62001;53.366;6.636;2022-07-22T15:20:05;18.90;99.90
52941;DHT22;62001;53.366;6.636;2022-07-22T15:22:32;18.80;99.90
52941;DHT22;62001;53.366;6.636;2022-07-22T15:24:59;18.70;99.90
52941;DHT22;62001;53.366;6.636;2022-07-22T15:27:25;18.60;99.90
52941;DHT22;62001;53.366;6.636;2022-07-22T15:29:51;18.50;99.90
52941;DHT22;62001;53.366;6.636;2022-07-22T15:32:17;18.60;99.90
52941;DHT22;62001;53.366;6.636;2022-07-22T15:34:44;18.60;99.90
52941;DHT22;62001;53.366;6.636;2022-07-22T15:37:11;18.60;99.90
52941;DHT22;62001;53.366;6.636;2022-07-22T15:39:36;18.60;99.90
52941;DHT22;62001;53.366;6.636;2022-07-22T15:42:03;18.70;99.90
52941;DHT22;62001;53.366;6.636;2022-07-22T15:44:29;18.80;99.90
52941;DHT22;62001;53.366;6.636;2022-07-22T15:46:55;18.80;99.90
52941;DHT22;62001;53.366;6.636;2022-07-22T15:49:21;18.70;99.90
52941;DHT22;62001;53.366;6.636;2022-07-22T15:51:48;18.70;99.90
52941;DHT22;62001;53.366;6.636;2022-07-22T15:54:14;18.50;99.90
52941;DHT22;62001;53.366;6.636;2022-07-22T15:56:40;18.50;99.90
52941;DHT22;62001;53.366;6.636;2022-07-22T15:59:06;18.40;99.90